Clear Lake, Indiana
Current Conditions -  °F | °C
As of 9:55 PM on Wednesday 17 Dec 2014 (Local Time) from KANQ Reporting Station
Overcast Overcast  
Wind Chill: 17°   Ceiling: 2500
Heat Index: 27°   Visibility: 10mi
Dew Point: 19°   Wind: 9mph
Humidity: 74%   Direction: 310°NW
Pressure: 30.19"   Gusts: NA
Location:  41.7284°N, 84.9169°W
Report Text: KANQ 180255Z AUTO 31008KT 10SM OVC025 M03/M07 A3019 RMK
Loading
Personal Weather Stations






























Interactive Weather Map New forecast layout! Learn more

10-Day Weather Forecast

Advertisements
Track Severe Weather on mobile